sensor_id;sensor_type;location;lat;lon;timestamp;P1;durP1;ratioP1;P2;durP2;ratioP2
14965;SDS011;7577;45.226;5.798;2023-07-20T00:01:58;2.98;;;2.08;;
14965;SDS011;7577;45.226;5.798;2023-07-20T00:04:30;2.45;;;2.25;;
14965;SDS011;7577;45.226;5.798;2023-07-20T00:07:00;2.13;;;1.93;;
14965;SDS011;7577;45.226;5.798;2023-07-20T00:09:30;2.20;;;2.00;;
14965;SDS011;7577;45.226;5.798;2023-07-20T00:12:00;2.62;;;2.10;;
14965;SDS011;7577;45.226;5.798;2023-07-20T00:14:30;3.60;;;1.82;;
14965;SDS011;7577;45.226;5.798;2023-07-20T00:17:00;2.52;;;2.33;;
14965;SDS011;7577;45.226;5.798;2023-07-20T00:19:30;2.20;;;2.00;;
14965;SDS011;7577;45.226;5.798;2023-07-20T00:22:03;2.37;;;2.17;;
14965;SDS011;7577;45.226;5.798;2023-07-20T00:24:33;2.20;;;2.00;;
14965;SDS011;7577;45.226;5.798;2023-07-20T00:27:04;2.02;;;1.82;;
14965;SDS011;7577;45.226;5.798;2023-07-20T00:29:36;2.87;;;2.25;;
14965;SDS011;7577;45.226;5.798;2023-07-20T00:32:13;2.10;;;1.90;;
14965;SDS011;7577;45.226;5.798;2023-07-20T00:34:44;3.43;;;2.10;;
14965;SDS011;7577;45.226;5.798;2023-07-20T00:37:21;3.40;;;2.20;;
14965;SDS011;7577;45.226;5.798;2023-07-20T00:39:52;1.98;;;1.77;;
14965;SDS011;7577;45.226;5.798;2023-07-20T00:42:24;3.55;;;2.00;;
14965;SDS011;7577;45.226;5.798;2023-07-20T00:44:54;2.62;;;2.10;;
14965;SDS011;7577;45.226;5.798;2023-07-20T00:47:25;2.30;;;2.10;;
14965;SDS011;7577;45.226;5.798;2023-07-20T00:49:55;2.10;;;1.90;;
14965;SDS011;7577;45.226;5.798;2023-07-20T00:52:36;3.00;;;2.45;;
14965;SDS011;7577;45.226;5.798;2023-07-20T00:55:08;1.95;;;1.85;;
14965;SDS011;7577;45.226;5.798;2023-07-20T00:57:39;3.70;;;2.00;;
14965;SDS011;7577;45.226;5.798;2023-07-20T01:00:10;2.80;;;2.25;;
14965;SDS011;7577;45.226;5.798;2023-07-20T01:02:41;2.72;;;2.10;;
14965;SDS011;7577;45.226;5.798;2023-07-20T01:05:11;3.12;;;2.37;;
14965;SDS011;7577;45.226;5.798;2023-07-20T01:07:52;2.50;;;2.30;;
14965;SDS011;7577;45.226;5.798;2023-07-20T01:10:24;4.23;;;2.60;;
14965;SDS011;7577;45.226;5.798;2023-07-20T01:12:56;2.60;;;2.23;;
14965;SDS011;7577;45.226;5.798;2023-07-20T01:15:27;3.10;;;2.10;;
14965;SDS011;7577;45.226;5.798;2023-07-20T01:18:05;2.70;;;2.33;;
14965;SDS011;7577;45.226;5.798;2023-07-20T01:20:35;1.87;;;1.77;;
14965;SDS011;7577;45.226;5.798;2023-07-20T01:23:12;2.87;;;2.40;;
14965;SDS011;7577;45.226;5.798;2023-07-20T01:25:57;4.10;;;2.50;;
14965;SDS011;7577;45.226;5.798;2023-07-20T01:28:35;2.67;;;2.00;;
14965;SDS011;7577;45.226;5.798;2023-07-20T01:31:20;3.05;;;2.50;;
14965;SDS011;7577;45.226;5.798;2023-07-20T01:33:54;3.22;;;2.30;;
14965;SDS011;7577;45.226;5.798;2023-07-20T01:36:26;2.70;;;2.35;;
14965;SDS011;7577;45.226;5.798;2023-07-20T01:38:58;2.45;;;2.25;;
14965;SDS011;7577;45.226;5.798;2023-07-20T01:41:29;2.60;;;2.08;;
14965;SDS011;7577;45.226;5.798;2023-07-20T01:44:00;2.52;;;2.05;;
14965;SDS011;7577;45.226;5.798;2023-07-20T01:46:44;3.35;;;2.22;;
14965;SDS011;7577;45.226;5.798;2023-07-20T01:49:14;2.50;;;2.02;;
14965;SDS011;7577;45.226;5.798;2023-07-20T01:51:44;2.50;;;2.30;;
14965;SDS011;7577;45.226;5.798;2023-07-20T01:54:14;2.87;;;2.35;;
14965;SDS011;7577;45.226;5.798;2023-07-20T01:56:45;2.80;;;2.20;;
14965;SDS011;7577;45.226;5.798;2023-07-20T01:59:15;3.20;;;2.35;;
14965;SDS011;7577;45.226;5.798;2023-07-20T02:01:45;3.10;;;2.25;;
14965;SDS011;7577;45.226;5.798;2023-07-20T02:04:16;3.35;;;2.30;;
14965;SDS011;7577;45.226;5.798;2023-07-20T02:06:46;2.93;;;2.30;;
14965;SDS011;7577;45.226;5.798;2023-07-20T02:09:16;3.25;;;2.55;;
14965;SDS011;7577;45.226;5.798;2023-07-20T02:11:47;2.67;;;2.47;;
14965;SDS011;7577;45.226;5.798;2023-07-20T02:14:17;2.60;;;2.40;;
14965;SDS011;7577;45.226;5.798;2023-07-20T02:16:55;3.87;;;2.60;;
14965;SDS011;7577;45.226;5.798;2023-07-20T02:19:27;3.02;;;2.52;;
14965;SDS011;7577;45.226;5.798;2023-07-20T02:21:58;2.60;;;2.40;;
14965;SDS011;7577;45.226;5.798;2023-07-20T02:24:36;3.17;;;2.43;;
14965;SDS011;7577;45.226;5.798;2023-07-20T02:27:06;3.02;;;2.65;;
14965;SDS011;7577;45.226;5.798;2023-07-20T02:29:37;2.90;;;2.50;;
14965;SDS011;7577;45.226;5.798;2023-07-20T02:32:08;2.72;;;2.40;;
14965;SDS011;7577;45.226;5.798;2023-07-20T02:34:46;3.10;;;2.40;;
14965;SDS011;7577;45.226;5.798;2023-07-20T02:37:16;2.25;;;2.05;;
14965;SDS011;7577;45.226;5.798;2023-07-20T02:39:46;2.40;;;2.20;;
14965;SDS011;7577;45.226;5.798;2023-07-20T02:42:16;2.47;;;2.27;;
14965;SDS011;7577;45.226;5.798;2023-07-20T02:44:49;3.00;;;2.30;;
14965;SDS011;7577;45.226;5.798;2023-07-20T02:47:18;2.98;;;2.42;;
14965;SDS011;7577;45.226;5.798;2023-07-20T02:49:49;3.27;;;2.40;;
14965;SDS011;7577;45.226;5.798;2023-07-20T02:52:19;2.50;;;2.30;;
14965;SDS011;7577;45.226;5.798;2023-07-20T02:54:50;2.40;;;2.10;;
14965;SDS011;7577;45.226;5.798;2023-07-20T02:57:20;2.37;;;2.17;;
14965;SDS011;7577;45.226;5.798;2023-07-20T02:59:50;2.55;;;2.35;;
14965;SDS011;7577;45.226;5.798;2023-07-20T03:02:20;2.60;;;2.37;;
14965;SDS011;7577;45.226;5.798;2023-07-20T03:04:50;5.35;;;2.72;;
14965;SDS011;7577;45.226;5.798;2023-07-20T03:07:21;2.70;;;2.37;;
14965;SDS011;7577;45.226;5.798;2023-07-20T03:09:51;2.57;;;2.10;;
14965;SDS011;7577;45.226;5.798;2023-07-20T03:12:22;2.50;;;2.22;;
14965;SDS011;7577;45.226;5.798;2023-07-20T03:14:55;3.42;;;2.70;;
14965;SDS011;7577;45.226;5.798;2023-07-20T03:17:25;2.50;;;2.25;;
14965;SDS011;7577;45.226;5.798;2023-07-20T03:20:04;2.60;;;2.40;;
14965;SDS011;7577;45.226;5.798;2023-07-20T03:22:37;2.40;;;2.10;;
14965;SDS011;7577;45.226;5.798;2023-07-20T03:25:08;2.47;;;2.22;;
14965;SDS011;7577;45.226;5.798;2023-07-20T03:27:38;2.87;;;2.30;;
14965;SDS011;7577;45.226;5.798;2023-07-20T03:30:09;2.70;;;2.35;;
14965;SDS011;7577;45.226;5.798;2023-07-20T03:32:40;2.60;;;2.40;;
14965;SDS011;7577;45.226;5.798;2023-07-20T03:35:10;2.30;;;2.10;;
14965;SDS011;7577;45.226;5.798;2023-07-20T03:37:40;4.83;;;2.52;;
14965;SDS011;7577;45.226;5.798;2023-07-20T03:40:11;2.40;;;2.20;;
14965;SDS011;7577;45.226;5.798;2023-07-20T03:42:42;3.42;;;2.83;;
14965;SDS011;7577;45.226;5.798;2023-07-20T03:45:12;2.63;;;2.33;;
14965;SDS011;7577;45.226;5.798;2023-07-20T03:47:42;2.80;;;2.40;;
14965;SDS011;7577;45.226;5.798;2023-07-20T03:50:15;2.40;;;2.20;;
14965;SDS011;7577;45.226;5.798;2023-07-20T03:52:45;2.63;;;2.00;;
14965;SDS011;7577;45.226;5.798;2023-07-20T03:55:15;2.40;;;2.08;;
14965;SDS011;7577;45.226;5.798;2023-07-20T03:57:45;3.33;;;2.30;;
14965;SDS011;7577;45.226;5.798;2023-07-20T04:00:18;3.35;;;2.10;;
14965;SDS011;7577;45.226;5.798;2023-07-20T04:02:48;2.95;;;2.20;;
14965;SDS011;7577;45.226;5.798;2023-07-20T04:05:18;2.70;;;2.40;;
14965;SDS011;7577;45.226;5.798;2023-07-20T04:07:49;3.10;;;2.50;;
14965;SDS011;7577;45.226;5.798;2023-07-20T04:10:26;2.50;;;2.30;;
14965;SDS011;7577;45.226;5.798;2023-07-20T04:12:57;3.25;;;2.42;;
14965;SDS011;7577;45.226;5.798;2023-07-20T04:15:27;2.73;;;2.00;;
14965;SDS011;7577;45.226;5.798;2023-07-20T04:17:57;2.33;;;2.10;;
14965;SDS011;7577;45.226;5.798;2023-07-20T04:20:34;2.95;;;2.20;;
14965;SDS011;7577;45.226;5.798;2023-07-20T04:23:05;2.92;;;2.45;;
14965;SDS011;7577;45.226;5.798;2023-07-20T04:25:35;2.80;;;2.40;;
14965;SDS011;7577;45.226;5.798;2023-07-20T04:28:07;3.15;;;2.65;;
14965;SDS011;7577;45.226;5.798;2023-07-20T04:30:37;3.80;;;2.47;;
14965;SDS011;7577;45.226;5.798;2023-07-20T04:33:08;2.40;;;2.20;;
14965;SDS011;7577;45.226;5.798;2023-07-20T04:35:47;2.72;;;2.12;;
14965;SDS011;7577;45.226;5.798;2023-07-20T04:38:19;3.08;;;2.60;;
14965;SDS011;7577;45.226;5.798;2023-07-20T04:41:03;3.10;;;2.47;;
14965;SDS011;7577;45.226;5.798;2023-07-20T04:43:33;2.52;;;2.33;;
14965;SDS011;7577;45.226;5.798;2023-07-20T04:46:03;2.83;;;2.43;;
14965;SDS011;7577;45.226;5.798;2023-07-20T04:48:33;3.07;;;2.40;;
14965;SDS011;7577;45.226;5.798;2023-07-20T04:51:03;3.05;;;2.15;;
14965;SDS011;7577;45.226;5.798;2023-07-20T04:53:33;2.67;;;2.07;;
14965;SDS011;7577;45.226;5.798;2023-07-20T04:56:03;2.40;;;2.20;;
14965;SDS011;7577;45.226;5.798;2023-07-20T04:58:33;2.83;;;2.30;;
14965;SDS011;7577;45.226;5.798;2023-07-20T05:01:03;2.37;;;2.17;;
14965;SDS011;7577;45.226;5.798;2023-07-20T05:03:44;4.15;;;2.72;;
14965;SDS011;7577;45.226;5.798;2023-07-20T05:06:14;2.80;;;2.40;;
14965;SDS011;7577;45.226;5.798;2023-07-20T05:08:44;3.47;;;2.80;;
14965;SDS011;7577;45.226;5.798;2023-07-20T05:11:14;4.05;;;2.52;;
14965;SDS011;7577;45.226;5.798;2023-07-20T05:13:44;2.60;;;2.37;;
14965;SDS011;7577;45.226;5.798;2023-07-20T05:16:14;2.70;;;2.30;;
14965;SDS011;7577;45.226;5.798;2023-07-20T05:18:45;2.73;;;2.30;;
14965;SDS011;7577;45.226;5.798;2023-07-20T05:21:15;3.15;;;2.25;;
14965;SDS011;7577;45.226;5.798;2023-07-20T05:23:52;2.75;;;2.50;;
14965;SDS011;7577;45.226;5.798;2023-07-20T05:26:22;4.63;;;2.60;;
14965;SDS011;7577;45.226;5.798;2023-07-20T05:28:52;2.87;;;2.52;;
14965;SDS011;7577;45.226;5.798;2023-07-20T05:31:22;2.47;;;2.27;;
14965;SDS011;7577;45.226;5.798;2023-07-20T05:33:53;3.83;;;2.35;;
14965;SDS011;7577;45.226;5.798;2023-07-20T05:36:23;3.92;;;2.35;;
14965;SDS011;7577;45.226;5.798;2023-07-20T05:38:54;2.72;;;2.35;;
14965;SDS011;7577;45.226;5.798;2023-07-20T05:41:24;4.22;;;2.27;;
14965;SDS011;7577;45.226;5.798;2023-07-20T05:43:54;2.62;;;2.22;;
14965;SDS011;7577;45.226;5.798;2023-07-20T05:46:32;2.60;;;2.23;;
14965;SDS011;7577;45.226;5.798;2023-07-20T05:49:02;2.72;;;2.42;;
14965;SDS011;7577;45.226;5.798;2023-07-20T05:51:32;3.52;;;2.30;;
14965;SDS011;7577;45.226;5.798;2023-07-20T05:54:02;3.93;;;2.60;;
14965;SDS011;7577;45.226;5.798;2023-07-20T05:56:32;2.80;;;2.30;;
14965;SDS011;7577;45.226;5.798;2023-07-20T05:59:11;2.50;;;2.10;;
14965;SDS011;7577;45.226;5.798;2023-07-20T06:01:41;3.77;;;2.62;;
14965;SDS011;7577;45.226;5.798;2023-07-20T06:04:11;2.40;;;1.95;;
14965;SDS011;7577;45.226;5.798;2023-07-20T06:06:41;3.50;;;2.52;;
14965;SDS011;7577;45.226;5.798;2023-07-20T06:09:12;3.30;;;2.10;;
14965;SDS011;7577;45.226;5.798;2023-07-20T06:11:42;3.17;;;2.10;;
14965;SDS011;7577;45.226;5.798;2023-07-20T06:14:12;3.50;;;2.43;;
14965;SDS011;7577;45.226;5.798;2023-07-20T06:16:42;2.65;;;2.17;;
14965;SDS011;7577;45.226;5.798;2023-07-20T06:19:12;3.00;;;2.30;;
14965;SDS011;7577;45.226;5.798;2023-07-20T06:21:43;3.30;;;2.53;;
14965;SDS011;7577;45.226;5.798;2023-07-20T06:24:13;3.55;;;2.30;;
14965;SDS011;7577;45.226;5.798;2023-07-20T06:26:44;3.40;;;2.20;;
14965;SDS011;7577;45.226;5.798;2023-07-20T06:29:14;3.67;;;2.62;;
14965;SDS011;7577;45.226;5.798;2023-07-20T06:31:44;3.03;;;2.00;;
14965;SDS011;7577;45.226;5.798;2023-07-20T06:34:14;2.65;;;2.27;;
14965;SDS011;7577;45.226;5.798;2023-07-20T06:36:44;2.87;;;2.03;;
14965;SDS011;7577;45.226;5.798;2023-07-20T06:39:14;3.55;;;2.60;;
14965;SDS011;7577;45.226;5.798;2023-07-20T06:41:45;2.70;;;2.27;;
14965;SDS011;7577;45.226;5.798;2023-07-20T06:44:22;4.00;;;2.17;;
14965;SDS011;7577;45.226;5.798;2023-07-20T06:46:52;3.80;;;2.10;;
14965;SDS011;7577;45.226;5.798;2023-07-20T06:49:26;3.77;;;2.33;;
14965;SDS011;7577;45.226;5.798;2023-07-20T06:51:56;2.80;;;2.10;;
14965;SDS011;7577;45.226;5.798;2023-07-20T06:54:26;2.50;;;2.27;;
14965;SDS011;7577;45.226;5.798;2023-07-20T06:56:56;3.60;;;2.85;;
14965;SDS011;7577;45.226;5.798;2023-07-20T06:59:27;3.30;;;2.47;;
14965;SDS011;7577;45.226;5.798;2023-07-20T07:01:57;2.87;;;2.50;;
14965;SDS011;7577;45.226;5.798;2023-07-20T07:04:34;3.97;;;2.27;;
14965;SDS011;7577;45.226;5.798;2023-07-20T07:07:05;3.10;;;2.13;;
14965;SDS011;7577;45.226;5.798;2023-07-20T07:09:42;2.70;;;2.27;;
14965;SDS011;7577;45.226;5.798;2023-07-20T07:12:12;3.12;;;2.52;;
14965;SDS011;7577;45.226;5.798;2023-07-20T07:14:42;3.67;;;2.47;;
14965;SDS011;7577;45.226;5.798;2023-07-20T07:17:12;2.83;;;2.40;;
14965;SDS011;7577;45.226;5.798;2023-07-20T07:19:42;6.15;;;2.60;;
14965;SDS011;7577;45.226;5.798;2023-07-20T07:22:20;2.90;;;2.20;;
14965;SDS011;7577;45.226;5.798;2023-07-20T07:24:50;2.93;;;2.30;;
14965;SDS011;7577;45.226;5.798;2023-07-20T07:27:21;2.57;;;2.23;;
14965;SDS011;7577;45.226;5.798;2023-07-20T07:29:51;2.65;;;2.30;;
14965;SDS011;7577;45.226;5.798;2023-07-20T07:32:22;2.67;;;2.12;;
14965;SDS011;7577;45.226;5.798;2023-07-20T07:34:52;3.83;;;2.30;;
14965;SDS011;7577;45.226;5.798;2023-07-20T07:37:23;3.20;;;2.10;;
14965;SDS011;7577;45.226;5.798;2023-07-20T07:39:53;3.50;;;2.20;;
14965;SDS011;7577;45.226;5.798;2023-07-20T07:42:23;2.40;;;2.10;;
14965;SDS011;7577;45.226;5.798;2023-07-20T07:44:53;2.37;;;2.10;;
14965;SDS011;7577;45.226;5.798;2023-07-20T07:47:25;2.90;;;2.30;;
14965;SDS011;7577;45.226;5.798;2023-07-20T07:49:55;2.40;;;2.20;;
14965;SDS011;7577;45.226;5.798;2023-07-20T07:52:25;4.73;;;2.60;;
14965;SDS011;7577;45.226;5.798;2023-07-20T07:54:55;2.73;;;2.47;;
14965;SDS011;7577;45.226;5.798;2023-07-20T07:57:25;3.20;;;2.27;;
14965;SDS011;7577;45.226;5.798;2023-07-20T07:59:55;3.20;;;2.37;;
14965;SDS011;7577;45.226;5.798;2023-07-20T08:02:25;2.67;;;2.20;;
14965;SDS011;7577;45.226;5.798;2023-07-20T08:04:56;3.73;;;2.20;;
14965;SDS011;7577;45.226;5.798;2023-07-20T08:07:34;5.00;;;1.82;;
14965;SDS011;7577;45.226;5.798;2023-07-20T08:10:08;2.90;;;2.30;;
14965;SDS011;7577;45.226;5.798;2023-07-20T08:12:40;2.30;;;2.10;;
14965;SDS011;7577;45.226;5.798;2023-07-20T08:15:11;3.57;;;2.10;;
14965;SDS011;7577;45.226;5.798;2023-07-20T08:17:42;2.87;;;2.00;;
14965;SDS011;7577;45.226;5.798;2023-07-20T08:20:13;2.75;;;2.00;;
14965;SDS011;7577;45.226;5.798;2023-07-20T08:22:44;3.40;;;2.27;;
14965;SDS011;7577;45.226;5.798;2023-07-20T08:25:15;2.75;;;1.80;;
14965;SDS011;7577;45.226;5.798;2023-07-20T08:27:52;2.43;;;2.00;;
14965;SDS011;7577;45.226;5.798;2023-07-20T08:30:22;2.70;;;2.00;;
14965;SDS011;7577;45.226;5.798;2023-07-20T08:33:00;2.40;;;1.90;;
14965;SDS011;7577;45.226;5.798;2023-07-20T08:35:30;2.77;;;2.30;;
14965;SDS011;7577;45.226;5.798;2023-07-20T08:38:01;2.60;;;1.92;;
14965;SDS011;7577;45.226;5.798;2023-07-20T08:40:32;2.10;;;1.77;;
14965;SDS011;7577;45.226;5.798;2023-07-20T08:43:03;3.67;;;1.90;;
14965;SDS011;7577;45.226;5.798;2023-07-20T08:45:33;2.58;;;2.00;;
14965;SDS011;7577;45.226;5.798;2023-07-20T08:48:05;3.27;;;2.10;;
14965;SDS011;7577;45.226;5.798;2023-07-20T08:50:35;2.47;;;1.82;;
14965;SDS011;7577;45.226;5.798;2023-07-20T08:53:06;2.80;;;1.90;;
14965;SDS011;7577;45.226;5.798;2023-07-20T08:55:38;2.10;;;1.77;;
14965;SDS011;7577;45.226;5.798;2023-07-20T08:58:11;2.47;;;2.02;;
14965;SDS011;7577;45.226;5.798;2023-07-20T09:00:43;3.17;;;1.90;;
14965;SDS011;7577;45.226;5.798;2023-07-20T09:03:16;2.20;;;1.98;;
14965;SDS011;7577;45.226;5.798;2023-07-20T09:05:47;3.62;;;2.12;;
14965;SDS011;7577;45.226;5.798;2023-07-20T09:08:17;2.30;;;2.10;;
14965;SDS011;7577;45.226;5.798;2023-07-20T09:10:47;2.47;;;1.93;;
14965;SDS011;7577;45.226;5.798;2023-07-20T09:13:17;2.08;;;1.80;;
14965;SDS011;7577;45.226;5.798;2023-07-20T09:15:47;3.43;;;1.80;;
14965;SDS011;7577;45.226;5.798;2023-07-20T09:18:25;2.17;;;1.97;;
14965;SDS011;7577;45.226;5.798;2023-07-20T09:20:58;2.80;;;1.77;;
14965;SDS011;7577;45.226;5.798;2023-07-20T09:23:31;2.50;;;2.10;;
14965;SDS011;7577;45.226;5.798;2023-07-20T09:26:12;2.37;;;1.80;;
14965;SDS011;7577;45.226;5.798;2023-07-20T09:28:48;2.37;;;1.90;;
14965;SDS011;7577;45.226;5.798;2023-07-20T09:31:18;2.92;;;1.80;;
14965;SDS011;7577;45.226;5.798;2023-07-20T09:33:49;2.10;;;1.67;;
14965;SDS011;7577;45.226;5.798;2023-07-20T09:36:22;2.85;;;1.90;;
14965;SDS011;7577;45.226;5.798;2023-07-20T09:38:54;2.45;;;1.60;;
14965;SDS011;7577;45.226;5.798;2023-07-20T09:41:24;2.37;;;1.90;;
14965;SDS011;7577;45.226;5.798;2023-07-20T09:43:54;2.37;;;2.00;;
14965;SDS011;7577;45.226;5.798;2023-07-20T09:46:24;2.90;;;1.80;;
14965;SDS011;7577;45.226;5.798;2023-07-20T09:48:55;3.50;;;1.87;;
14965;SDS011;7577;45.226;5.798;2023-07-20T09:51:25;2.52;;;1.92;;
14965;SDS011;7577;45.226;5.798;2023-07-20T09:53:57;2.05;;;1.80;;
14965;SDS011;7577;45.226;5.798;2023-07-20T09:56:28;1.87;;;1.60;;
14965;SDS011;7577;45.226;5.798;2023-07-20T09:59:01;2.33;;;1.85;;
14965;SDS011;7577;45.226;5.798;2023-07-20T10:01:32;2.77;;;1.85;;
14965;SDS011;7577;45.226;5.798;2023-07-20T10:04:03;2.30;;;1.70;;
14965;SDS011;7577;45.226;5.798;2023-07-20T10:06:35;2.50;;;1.80;;
14965;SDS011;7577;45.226;5.798;2023-07-20T10:09:14;2.30;;;1.70;;
14965;SDS011;7577;45.226;5.798;2023-07-20T10:11:48;2.33;;;1.87;;
14965;SDS011;7577;45.226;5.798;2023-07-20T10:14:25;2.33;;;2.13;;
14965;SDS011;7577;45.226;5.798;2023-07-20T10:16:58;2.23;;;1.80;;
14965;SDS011;7577;45.226;5.798;2023-07-20T10:19:38;2.93;;;1.90;;
14965;SDS011;7577;45.226;5.798;2023-07-20T10:22:14;1.92;;;1.70;;
14965;SDS011;7577;45.226;5.798;2023-07-20T10:24:46;2.30;;;1.67;;
14965;SDS011;7577;45.226;5.798;2023-07-20T10:27:16;2.83;;;1.90;;
14965;SDS011;7577;45.226;5.798;2023-07-20T10:29:48;3.50;;;1.80;;
14965;SDS011;7577;45.226;5.798;2023-07-20T10:32:19;1.80;;;1.60;;
14965;SDS011;7577;45.226;5.798;2023-07-20T10:34:51;2.20;;;1.67;;
14965;SDS011;7577;45.226;5.798;2023-07-20T10:37:46;2.27;;;1.77;;
14965;SDS011;7577;45.226;5.798;2023-07-20T10:40:33;2.17;;;1.73;;
14965;SDS011;7577;45.226;5.798;2023-07-20T10:43:05;1.70;;;1.60;;
14965;SDS011;7577;45.226;5.798;2023-07-20T10:45:40;2.10;;;1.52;;
14965;SDS011;7577;45.226;5.798;2023-07-20T10:48:15;2.98;;;1.70;;
14965;SDS011;7577;45.226;5.798;2023-07-20T10:53:40;2.08;;;1.87;;
14965;SDS011;7577;45.226;5.798;2023-07-20T10:56:12;2.37;;;1.70;;
14965;SDS011;7577;45.226;5.798;2023-07-20T10:58:43;1.95;;;1.75;;
14965;SDS011;7577;45.226;5.798;2023-07-20T11:01:13;4.97;;;1.70;;
14965;SDS011;7577;45.226;5.798;2023-07-20T11:03:49;3.17;;;1.80;;
14965;SDS011;7577;45.226;5.798;2023-07-20T11:06:32;2.40;;;1.80;;
14965;SDS011;7577;45.226;5.798;2023-07-20T11:09:13;1.90;;;1.60;;
14965;SDS011;7577;45.226;5.798;2023-07-20T11:11:44;2.12;;;1.70;;
14965;SDS011;7577;45.226;5.798;2023-07-20T11:14:21;4.27;;;1.70;;
14965;SDS011;7577;45.226;5.798;2023-07-20T11:16:52;2.08;;;1.77;;
14965;SDS011;7577;45.226;5.798;2023-07-20T11:19:23;2.27;;;1.80;;
14965;SDS011;7577;45.226;5.798;2023-07-20T11:21:54;1.90;;;1.53;;
14965;SDS011;7577;45.226;5.798;2023-07-20T11:24:25;2.60;;;1.60;;
14965;SDS011;7577;45.226;5.798;2023-07-20T11:26:55;3.90;;;1.52;;
14965;SDS011;7577;45.226;5.798;2023-07-20T11:29:34;2.83;;;1.70;;
14965;SDS011;7577;45.226;5.798;2023-07-20T11:32:08;2.33;;;1.70;;
14965;SDS011;7577;45.226;5.798;2023-07-20T11:34:46;2.30;;;1.77;;
14965;SDS011;7577;45.226;5.798;2023-07-20T11:37:17;1.62;;;1.50;;
14965;SDS011;7577;45.226;5.798;2023-07-20T11:39:47;2.00;;;1.53;;
14965;SDS011;7577;45.226;5.798;2023-07-20T11:42:19;1.63;;;1.53;;
14965;SDS011;7577;45.226;5.798;2023-07-20T11:44:51;2.40;;;1.50;;
14965;SDS011;7577;45.226;5.798;2023-07-20T11:47:23;2.20;;;1.62;;
14965;SDS011;7577;45.226;5.798;2023-07-20T11:50:06;2.30;;;1.60;;
14965;SDS011;7577;45.226;5.798;2023-07-20T11:52:38;2.87;;;1.57;;
14965;SDS011;7577;45.226;5.798;2023-07-20T11:55:16;1.60;;;1.50;;
14965;SDS011;7577;45.226;5.798;2023-07-20T11:58:01;2.55;;;1.62;;
14965;SDS011;7577;45.226;5.798;2023-07-20T12:00:31;1.72;;;1.60;;
14965;SDS011;7577;45.226;5.798;2023-07-20T12:03:05;3.03;;;1.57;;
14965;SDS011;7577;45.226;5.798;2023-07-20T12:05:35;1.70;;;1.60;;
14965;SDS011;7577;45.226;5.798;2023-07-20T12:08:06;2.13;;;1.60;;
14965;SDS011;7577;45.226;5.798;2023-07-20T12:10:38;2.80;;;1.60;;
14965;SDS011;7577;45.226;5.798;2023-07-20T12:13:10;3.62;;;1.70;;
14965;SDS011;7577;45.226;5.798;2023-07-20T12:15:41;2.00;;;1.70;;
14965;SDS011;7577;45.226;5.798;2023-07-20T12:18:11;1.95;;;1.70;;
14965;SDS011;7577;45.226;5.798;2023-07-20T12:20:49;2.15;;;1.42;;
14965;SDS011;7577;45.226;5.798;2023-07-20T12:23:22;2.27;;;1.80;;
14965;SDS011;7577;45.226;5.798;2023-07-20T12:25:52;1.85;;;1.75;;
14965;SDS011;7577;45.226;5.798;2023-07-20T12:28:23;2.03;;;1.70;;
14965;SDS011;7577;45.226;5.798;2023-07-20T12:30:54;1.80;;;1.40;;
14965;SDS011;7577;45.226;5.798;2023-07-20T12:33:24;4.60;;;2.00;;
14965;SDS011;7577;45.226;5.798;2023-07-20T12:35:54;2.45;;;1.82;;
14965;SDS011;7577;45.226;5.798;2023-07-20T12:38:26;2.20;;;1.70;;
14965;SDS011;7577;45.226;5.798;2023-07-20T12:40:58;2.02;;;1.72;;
14965;SDS011;7577;45.226;5.798;2023-07-20T12:43:37;3.15;;;1.80;;
14965;SDS011;7577;45.226;5.798;2023-07-20T12:46:07;2.02;;;1.60;;
14965;SDS011;7577;45.226;5.798;2023-07-20T12:48:48;1.75;;;1.60;;
14965;SDS011;7577;45.226;5.798;2023-07-20T12:51:18;2.58;;;1.70;;
14965;SDS011;7577;45.226;5.798;2023-07-20T12:53:56;2.67;;;1.65;;
14965;SDS011;7577;45.226;5.798;2023-07-20T12:56:26;1.52;;;1.37;;
14965;SDS011;7577;45.226;5.798;2023-07-20T12:58:56;1.55;;;1.45;;
14965;SDS011;7577;45.226;5.798;2023-07-20T13:01:26;1.87;;;1.77;;
14965;SDS011;7577;45.226;5.798;2023-07-20T13:03:56;1.70;;;1.50;;
14965;SDS011;7577;45.226;5.798;2023-07-20T13:06:26;2.60;;;1.55;;
14965;SDS011;7577;45.226;5.798;2023-07-20T13:08:57;1.82;;;1.40;;
14965;SDS011;7577;45.226;5.798;2023-07-20T13:11:27;2.10;;;1.70;;
14965;SDS011;7577;45.226;5.798;2023-07-20T13:13:57;1.60;;;1.50;;
14965;SDS011;7577;45.226;5.798;2023-07-20T13:16:26;2.15;;;1.70;;
14965;SDS011;7577;45.226;5.798;2023-07-20T13:18:56;2.67;;;1.40;;
14965;SDS011;7577;45.226;5.798;2023-07-20T13:21:26;1.87;;;1.57;;
14965;SDS011;7577;45.226;5.798;2023-07-20T13:23:56;1.92;;;1.20;;
14965;SDS011;7577;45.226;5.798;2023-07-20T13:26:26;2.02;;;1.72;;
14965;SDS011;7577;45.226;5.798;2023-07-20T13:28:57;1.50;;;1.40;;
14965;SDS011;7577;45.226;5.798;2023-07-20T13:31:27;1.82;;;1.45;;
14965;SDS011;7577;45.226;5.798;2023-07-20T13:34:05;1.52;;;1.40;;
14965;SDS011;7577;45.226;5.798;2023-07-20T13:36:35;2.15;;;1.60;;
14965;SDS011;7577;45.226;5.798;2023-07-20T13:39:05;2.15;;;1.50;;
14965;SDS011;7577;45.226;5.798;2023-07-20T13:41:36;2.30;;;1.90;;
14965;SDS011;7577;45.226;5.798;2023-07-20T13:44:06;2.05;;;1.70;;
14965;SDS011;7577;45.226;5.798;2023-07-20T13:46:36;1.87;;;1.67;;
14965;SDS011;7577;45.226;5.798;2023-07-20T13:49:14;1.60;;;1.50;;
14965;SDS011;7577;45.226;5.798;2023-07-20T13:51:44;1.97;;;1.50;;
14965;SDS011;7577;45.226;5.798;2023-07-20T13:54:14;1.72;;;1.40;;
14965;SDS011;7577;45.226;5.798;2023-07-20T13:56:44;2.70;;;2.12;;
14965;SDS011;7577;45.226;5.798;2023-07-20T13:59:14;1.90;;;1.60;;
14965;SDS011;7577;45.226;5.798;2023-07-20T14:01:44;2.00;;;1.70;;
14965;SDS011;7577;45.226;5.798;2023-07-20T14:04:14;1.92;;;1.40;;
14965;SDS011;7577;45.226;5.798;2023-07-20T14:06:44;2.47;;;1.60;;
14965;SDS011;7577;45.226;5.798;2023-07-20T14:09:15;1.80;;;1.50;;
14965;SDS011;7577;45.226;5.798;2023-07-20T14:11:45;2.05;;;1.70;;
14965;SDS011;7577;45.226;5.798;2023-07-20T14:14:15;2.40;;;1.57;;
14965;SDS011;7577;45.226;5.798;2023-07-20T14:16:45;2.20;;;1.60;;
14965;SDS011;7577;45.226;5.798;2023-07-20T14:19:16;2.17;;;1.60;;
14965;SDS011;7577;45.226;5.798;2023-07-20T14:21:46;1.80;;;1.50;;
14965;SDS011;7577;45.226;5.798;2023-07-20T14:24:24;2.35;;;1.42;;
14965;SDS011;7577;45.226;5.798;2023-07-20T14:26:54;1.50;;;1.37;;
14965;SDS011;7577;45.226;5.798;2023-07-20T14:29:23;2.85;;;1.50;;
14965;SDS011;7577;45.226;5.798;2023-07-20T14:31:54;2.37;;;1.70;;
14965;SDS011;7577;45.226;5.798;2023-07-20T14:34:24;2.25;;;1.45;;
14965;SDS011;7577;45.226;5.798;2023-07-20T14:36:54;1.95;;;1.60;;
14965;SDS011;7577;45.226;5.798;2023-07-20T14:39:23;2.77;;;1.65;;
14965;SDS011;7577;45.226;5.798;2023-07-20T14:41:53;1.45;;;1.35;;
14965;SDS011;7577;45.226;5.798;2023-07-20T14:44:24;1.92;;;1.52;;
14965;SDS011;7577;45.226;5.798;2023-07-20T14:46:54;2.50;;;1.70;;
14965;SDS011;7577;45.226;5.798;2023-07-20T14:49:24;2.90;;;1.57;;
14965;SDS011;7577;45.226;5.798;2023-07-20T14:51:55;2.62;;;1.70;;
14965;SDS011;7577;45.226;5.798;2023-07-20T14:54:26;1.72;;;1.50;;
14965;SDS011;7577;45.226;5.798;2023-07-20T14:56:56;2.25;;;1.65;;
14965;SDS011;7577;45.226;5.798;2023-07-20T14:59:34;1.70;;;1.45;;
14965;SDS011;7577;45.226;5.798;2023-07-20T15:02:04;2.15;;;1.57;;
14965;SDS011;7577;45.226;5.798;2023-07-20T15:04:34;2.98;;;1.60;;
14965;SDS011;7577;45.226;5.798;2023-07-20T15:07:05;2.50;;;1.70;;
14965;SDS011;7577;45.226;5.798;2023-07-20T15:09:35;1.62;;;1.50;;
14965;SDS011;7577;45.226;5.798;2023-07-20T15:12:06;2.75;;;1.40;;
14965;SDS011;7577;45.226;5.798;2023-07-20T15:14:39;1.37;;;1.27;;
14965;SDS011;7577;45.226;5.798;2023-07-20T15:17:10;2.12;;;1.40;;
14965;SDS011;7577;45.226;5.798;2023-07-20T15:19:48;1.55;;;1.45;;
14965;SDS011;7577;45.226;5.798;2023-07-20T15:22:18;1.57;;;1.47;;
14965;SDS011;7577;45.226;5.798;2023-07-20T15:24:49;2.72;;;1.35;;
14965;SDS011;7577;45.226;5.798;2023-07-20T15:27:19;1.60;;;1.32;;
14965;SDS011;7577;45.226;5.798;2023-07-20T15:29:49;2.35;;;1.50;;
14965;SDS011;7577;45.226;5.798;2023-07-20T15:32:19;1.62;;;1.52;;